Busch, Arkansas
Current Conditions -  °F | °C
As of 10:57 PM on Saturday 20 Dec 2014 (Local Time) from KROG Reporting Station
Overcast Overcast  
Wind Chill: 37°   Ceiling: 2200
Heat Index: 41°   Visibility: 10mi
Dew Point: 36°   Wind: 6mph
Humidity: 82%   Direction: 130°SE
Pressure: 30.18"   Gusts: NA
Location:  36.4778°N, 93.7346°W
Report Text: KROG 210457Z AUTO 13005KT 10SM OVC022 05/02 A3018 RMK AO2 SLP225 T00500022 400670039
Loading
Personal Weather Stations






























Interactive Weather Map New forecast layout! Learn more

10-Day Weather Forecast

Advertisements
Track Severe Weather on mobile